createdAt,value
2019-04-04T00:00:47.667Z,2.60
2019-04-04T00:03:34.485Z,2.70
2019-04-04T00:06:20.903Z,2.70
2019-04-04T00:12:02.565Z,3.30
2019-04-04T00:14:49.000Z,3.03
2019-04-04T00:17:15.857Z,3.00
2019-04-04T00:20:02.664Z,4.20
2019-04-04T00:22:49.109Z,3.40
2019-04-04T00:25:35.622Z,2.57
2019-04-04T00:28:22.056Z,3.33
2019-04-04T00:31:01.977Z,3.00
2019-04-04T00:33:41.798Z,3.03
2019-04-04T00:36:21.404Z,2.83
2019-04-04T00:39:01.016Z,3.37
2019-04-04T00:41:27.780Z,3.50
2019-04-04T00:44:14.305Z,3.67
2019-04-04T00:46:41.043Z,3.67
2019-04-04T00:49:07.927Z,3.50
2019-04-04T00:51:54.764Z,3.20
2019-04-04T00:54:41.169Z,3.70
2019-04-04T00:57:27.592Z,4.30
2019-04-04T00:59:54.915Z,3.80
2019-04-04T01:02:41.308Z,3.93
2019-04-04T01:05:27.713Z,4.20
2019-04-04T01:08:14.103Z,4.33
2019-04-04T01:11:00.508Z,4.77
2019-04-04T01:13:47.476Z,4.93
2019-04-04T01:16:34.145Z,5.30
2019-04-04T01:19:22.565Z,5.57
2019-04-04T01:22:09.006Z,5.47
2019-04-04T01:24:55.414Z,5.40
2019-04-04T01:27:41.813Z,5.87
2019-04-04T01:30:21.476Z,5.63
2019-04-04T01:33:03.646Z,5.70
2019-04-04T01:35:43.066Z,5.70
2019-04-04T01:38:23.113Z,5.60
2019-04-04T01:41:04.452Z,5.30
2019-04-04T01:43:45.176Z,5.80
2019-04-04T01:46:24.597Z,5.67
2019-04-04T01:49:04.537Z,6.07
2019-04-04T01:51:44.641Z,6.27
2019-04-04T01:54:24.899Z,6.40
2019-04-04T01:57:07.793Z,6.30
2019-04-04T01:59:46.094Z,6.43
2019-04-04T02:02:26.230Z,6.80
2019-04-04T02:05:06.296Z,6.67
2019-04-04T02:07:46.241Z,6.80
2019-04-04T02:10:26.258Z,6.80
2019-04-04T02:13:09.622Z,6.67
2019-04-04T02:15:47.625Z,6.97
2019-04-04T02:18:27.008Z,6.63
2019-04-04T02:21:06.928Z,6.60
2019-04-04T02:23:46.856Z,7.10
2019-04-04T02:26:26.872Z,7.47
2019-04-04T02:29:07.025Z,7.60
2019-04-04T02:31:53.035Z,7.70
2019-04-04T02:34:32.173Z,7.00
2019-04-04T02:37:12.310Z,8.13
2019-04-04T02:39:52.115Z,8.10
2019-04-04T02:42:32.154Z,7.80
2019-04-04T02:45:12.287Z,7.90
2019-04-04T02:47:52.405Z,8.03
2019-04-04T02:50:35.579Z,7.57
2019-04-04T02:53:13.713Z,7.70
2019-04-04T02:55:54.019Z,7.47
2019-04-04T02:58:33.774Z,8.10
2019-04-04T03:01:13.678Z,8.83
2019-04-04T03:03:53.825Z,7.63
2019-04-04T03:06:33.845Z,7.87
2019-04-04T03:09:13.758Z,7.77
2019-04-04T03:11:54.741Z,7.57
2019-04-04T03:14:37.268Z,7.90
2019-04-04T03:17:16.939Z,7.90
2019-04-04T03:19:56.933Z,8.13
2019-04-04T03:22:37.017Z,8.70
2019-04-04T03:25:16.447Z,9.00
2019-04-04T03:27:58.273Z,9.33
2019-04-04T03:30:38.381Z,8.60
2019-04-04T03:33:18.260Z,9.17
2019-04-04T03:36:00.964Z,10.90
2019-04-04T03:38:39.269Z,11.17
2019-04-04T03:41:19.309Z,9.97
2019-04-04T03:43:59.394Z,10.03
2019-04-04T03:46:39.224Z,9.27
2019-04-04T03:49:23.428Z,8.77
2019-04-04T03:52:00.543Z,9.00
2019-04-04T03:54:40.486Z,9.13
2019-04-04T03:57:20.484Z,9.67
2019-04-04T04:00:00.422Z,9.53
2019-04-04T04:02:40.525Z,9.73
2019-04-04T04:05:20.425Z,9.07
2019-04-04T04:07:59.675Z,9.57
2019-04-04T04:10:26.767Z,9.47
2019-04-04T04:13:15.977Z,10.17
2019-04-04T04:16:03.703Z,10.83
2019-04-04T04:18:53.996Z,9.77
2019-04-04T04:21:42.919Z,9.77
2019-04-04T04:24:29.859Z,9.83
2019-04-04T04:27:15.893Z,9.57
2019-04-04T04:29:55.437Z,10.20
2019-04-04T04:32:37.198Z,9.57
2019-04-04T04:35:17.646Z,10.27
2019-04-04T04:37:57.793Z,10.43
2019-04-04T04:40:37.801Z,9.80
2019-04-04T04:43:17.913Z,10.40
2019-04-04T04:45:58.150Z,10.70
2019-04-04T04:48:37.461Z,9.70
2019-04-04T04:51:17.706Z,10.97
2019-04-04T04:53:57.735Z,11.47
2019-04-04T04:56:37.806Z,9.63
2019-04-04T04:59:17.949Z,10.63
2019-04-04T05:01:57.947Z,10.40
2019-04-04T05:04:37.845Z,10.57
2019-04-04T05:07:07.118Z,11.30
2019-04-04T05:09:53.058Z,11.20
2019-04-04T05:12:39.472Z,11.20
2019-04-04T05:15:25.886Z,11.27
2019-04-04T05:18:14.102Z,10.57
2019-04-04T05:21:01.946Z,10.53
2019-04-04T05:23:48.915Z,11.63
2019-04-04T05:26:38.428Z,11.70
2019-04-04T05:29:17.236Z,11.60
2019-04-04T05:31:57.157Z,11.77
2019-04-04T05:34:37.270Z,10.63
2019-04-04T05:37:16.522Z,11.93
2019-04-04T05:39:56.477Z,11.30
2019-04-04T05:42:35.610Z,12.90
2019-04-04T05:45:15.867Z,11.97
2019-04-04T05:47:58.306Z,11.13
2019-04-04T05:50:37.234Z,12.30
2019-04-04T05:53:17.236Z,12.57
2019-04-04T05:55:57.682Z,12.47
2019-04-04T05:58:37.659Z,12.70
2019-04-04T06:01:18.157Z,12.40
2019-04-04T06:03:57.707Z,12.13
2019-04-04T06:06:37.628Z,12.40
2019-04-04T06:09:17.625Z,13.23
2019-04-04T06:11:57.786Z,12.30
2019-04-04T06:14:24.581Z,13.83
2019-04-04T06:17:10.993Z,13.37
2019-04-04T06:19:58.052Z,11.77
2019-04-04T06:22:44.717Z,13.10
2019-04-04T06:25:34.297Z,12.10
2019-04-04T06:28:19.585Z,13.13
2019-04-04T06:31:00.819Z,12.53
2019-04-04T06:33:41.150Z,13.27
2019-04-04T06:36:21.121Z,12.77
2019-04-04T06:39:01.155Z,16.03
2019-04-04T06:41:41.052Z,12.47
2019-04-04T06:44:21.146Z,12.87
2019-04-04T06:47:02.164Z,13.17
2019-04-04T06:49:42.057Z,12.60
2019-04-04T06:52:23.455Z,12.70
2019-04-04T06:55:03.403Z,14.15
2019-04-04T06:57:43.500Z,12.43
2019-04-04T07:00:23.797Z,12.68
2019-04-04T07:03:03.850Z,12.25
2019-04-04T07:05:30.938Z,12.47
2019-04-04T07:08:17.639Z,12.15
2019-04-04T07:11:06.874Z,11.95
2019-04-04T07:13:52.352Z,12.85
2019-04-04T07:16:38.894Z,12.82
2019-04-04T07:19:25.360Z,12.78
2019-04-04T07:22:11.806Z,12.53
2019-04-04T07:25:00.962Z,15.98
2019-04-04T07:27:47.403Z,12.43
2019-04-04T07:30:28.528Z,12.05
2019-04-04T07:33:10.054Z,12.15
2019-04-04T07:35:49.881Z,13.15
2019-04-04T07:38:16.926Z,12.10
2019-04-04T07:41:03.709Z,12.35
2019-04-04T07:43:51.580Z,13.08
2019-04-04T07:46:40.940Z,11.63
2019-04-04T07:49:27.176Z,12.75
2019-04-04T07:52:13.627Z,11.80
2019-04-04T07:55:00.713Z,12.30
2019-04-04T07:57:47.207Z,12.70
2019-04-04T08:00:33.697Z,12.82
2019-04-04T08:03:20.103Z,12.30
2019-04-04T08:06:06.606Z,12.45
2019-04-04T08:08:53.029Z,12.10
2019-04-04T08:11:39.693Z,12.13
2019-04-04T08:14:26.197Z,11.88
2019-04-04T08:17:12.929Z,11.97
2019-04-04T08:20:00.144Z,11.83
2019-04-04T08:22:47.676Z,11.90
2019-04-04T08:25:34.521Z,11.43
2019-04-04T08:28:21.054Z,11.20
2019-04-04T08:31:00.306Z,11.73
2019-04-04T08:33:40.393Z,12.03
2019-04-04T08:36:20.683Z,12.23
2019-04-04T08:39:00.509Z,11.57
2019-04-04T08:41:27.983Z,12.20
2019-04-04T08:44:14.492Z,12.20
2019-04-04T08:47:01.181Z,11.73
2019-04-04T08:49:47.620Z,12.30
2019-04-04T08:52:34.000Z,14.05
2019-04-04T08:55:01.070Z,13.72
2019-04-04T08:57:47.485Z,12.05
2019-04-04T09:00:33.888Z,10.98
2019-04-04T09:03:20.325Z,11.60
2019-04-04T09:06:06.975Z,13.03
2019-04-04T09:08:53.513Z,11.55
2019-04-04T09:11:40.023Z,11.30
2019-04-04T09:14:26.693Z,11.30
2019-04-04T09:17:13.184Z,12.00
2019-04-04T09:19:59.647Z,14.53
2019-04-04T09:22:46.034Z,11.65
2019-04-04T09:25:32.638Z,11.40
2019-04-04T09:28:19.289Z,12.07
2019-04-04T09:30:59.078Z,12.28
2019-04-04T09:33:25.820Z,12.40
2019-04-04T09:35:53.085Z,11.95
2019-04-04T09:38:19.841Z,12.35
2019-04-04T09:41:06.295Z,12.10
2019-04-04T09:43:52.696Z,11.95
2019-04-04T09:46:39.124Z,12.73
2019-04-04T09:49:25.912Z,12.03
2019-04-04T09:52:12.725Z,12.35
2019-04-04T09:54:59.158Z,11.65
2019-04-04T09:57:45.571Z,11.73
2019-04-04T10:00:32.084Z,13.72
2019-04-04T10:03:18.484Z,13.58
2019-04-04T10:06:05.030Z,11.95
2019-04-04T10:08:51.516Z,11.75
2019-04-04T10:11:18.370Z,11.93
2019-04-04T10:14:05.129Z,12.20
2019-04-04T10:16:51.961Z,12.55
2019-04-04T10:19:38.554Z,12.88
2019-04-04T10:22:24.949Z,12.80
2019-04-04T10:25:11.381Z,14.73
2019-04-04T10:27:57.784Z,13.58
2019-04-04T10:30:37.798Z,13.83
2019-04-04T10:33:17.938Z,13.98
2019-04-04T10:35:58.097Z,13.72
2019-04-04T10:38:53.612Z,12.68
2019-04-04T10:41:34.526Z,12.82
2019-04-04T10:44:13.833Z,14.13
2019-04-04T10:46:53.913Z,16.35
2019-04-04T10:49:33.862Z,13.70
2019-04-04T10:52:13.837Z,13.72
2019-04-04T10:54:53.813Z,13.50
2019-04-04T10:57:33.793Z,13.15
2019-04-04T11:00:13.935Z,13.13
2019-04-04T11:02:53.093Z,13.32
2019-04-04T11:05:35.284Z,13.43
2019-04-04T11:08:15.355Z,13.72
2019-04-04T11:10:55.353Z,13.75
2019-04-04T11:13:35.393Z,13.08
2019-04-04T11:16:15.690Z,13.03
2019-04-04T11:18:55.629Z,13.35
2019-04-04T11:21:35.785Z,14.05
2019-04-04T11:24:15.990Z,14.50
2019-04-04T11:26:55.986Z,14.43
2019-04-04T11:29:35.305Z,14.58
2019-04-04T11:32:15.627Z,15.15
2019-04-04T11:34:55.563Z,15.45
2019-04-04T11:37:35.686Z,14.47
2019-04-04T11:40:15.612Z,13.78
2019-04-04T11:42:55.791Z,13.58
2019-04-04T11:45:35.894Z,15.32
2019-04-04T11:48:03.192Z,13.85
2019-04-04T11:50:49.600Z,14.58
2019-04-04T11:53:36.101Z,14.85
2019-04-04T11:56:22.524Z,14.73
2019-04-04T11:59:09.034Z,15.95
2019-04-04T12:01:55.555Z,15.95
2019-04-04T12:04:42.289Z,15.93
2019-04-04T12:07:28.717Z,15.55
2019-04-04T12:10:15.234Z,16.35
2019-04-04T12:13:02.004Z,15.30
2019-04-04T12:15:48.798Z,15.30
2019-04-04T12:18:35.222Z,14.40
2019-04-04T12:21:21.774Z,15.90
2019-04-04T12:24:08.354Z,15.85
2019-04-04T12:26:55.040Z,14.73
2019-04-04T12:29:34.697Z,15.30
2019-04-04T12:32:14.746Z,15.72
2019-04-04T12:34:55.123Z,15.30
2019-04-04T12:37:34.761Z,15.50
2019-04-04T12:40:20.740Z,15.95
2019-04-04T12:42:56.852Z,15.95
2019-04-04T12:45:36.705Z,16.52
2019-04-04T12:48:16.973Z,17.25
2019-04-04T12:50:57.124Z,18.35
2019-04-04T12:53:36.808Z,16.20
2019-04-04T13:02:15.973Z,15.25
2019-04-04T13:04:56.051Z,15.55
2019-04-04T13:07:35.949Z,15.32
2019-04-04T13:10:15.632Z,15.68
2019-04-04T13:12:55.298Z,16.42
2019-04-04T13:15:35.244Z,15.58
2019-04-04T13:18:02.510Z,16.42
2019-04-04T13:21:04.545Z,16.20
2019-04-04T13:24:07.358Z,16.07
2019-04-04T13:26:53.773Z,15.75
2019-04-04T13:29:40.458Z,15.70
2019-04-04T13:32:26.989Z,14.83
2019-04-04T13:35:13.498Z,16.25
2019-04-04T13:37:40.598Z,15.10
2019-04-04T13:40:27.103Z,14.10
2019-04-04T13:43:13.550Z,14.03
2019-04-04T13:46:00.108Z,14.55
2019-04-04T13:48:46.567Z,16.95
2019-04-04T13:51:33.452Z,15.55
2019-04-04T13:54:20.108Z,15.15
2019-04-04T13:57:06.821Z,15.85
2019-04-04T13:59:53.225Z,14.78
2019-04-04T14:02:39.737Z,17.42
2019-04-04T14:05:26.152Z,13.90
2019-04-04T14:08:14.369Z,17.12
2019-04-04T14:11:01.014Z,16.23
2019-04-04T14:13:49.477Z,19.82
2019-04-04T14:16:36.314Z,16.20
2019-04-04T14:19:22.830Z,13.13
2019-04-04T14:22:09.369Z,14.60
2019-04-04T14:24:56.036Z,14.30
2019-04-04T14:27:42.998Z,10.95
2019-04-04T14:30:23.230Z,12.55
2019-04-04T14:33:03.192Z,12.17
2019-04-04T14:35:43.351Z,11.75
2019-04-04T14:38:23.398Z,10.43
2019-04-04T14:41:11.179Z,11.80
2019-04-04T14:43:45.521Z,11.53
2019-04-04T14:46:25.673Z,10.50
2019-04-04T14:49:05.697Z,8.58
2019-04-04T14:51:45.940Z,10.07
2019-04-04T14:54:29.038Z,10.10
2019-04-04T14:57:08.023Z,9.50
2019-04-04T14:59:48.028Z,9.33
2019-04-04T15:02:27.443Z,9.23
2019-04-04T15:05:07.361Z,11.08
2019-04-04T15:07:47.344Z,10.50
2019-04-04T15:10:26.566Z,8.83
2019-04-04T15:13:06.786Z,8.10
2019-04-04T15:15:46.901Z,9.40
2019-04-04T15:18:26.159Z,8.60
2019-04-04T15:21:06.507Z,8.57
2019-04-04T15:23:46.706Z,9.07
2019-04-04T15:26:26.347Z,10.40
2019-04-04T15:29:05.578Z,8.73
2019-04-04T15:31:45.584Z,8.00
2019-04-04T15:34:25.784Z,8.33
2019-04-04T15:37:05.690Z,9.13
2019-04-04T15:39:45.739Z,7.83
2019-04-04T15:42:25.765Z,8.47
2019-04-04T15:45:05.818Z,8.93
2019-04-04T15:47:45.680Z,8.40
2019-04-04T15:50:25.893Z,8.60
2019-04-04T15:53:05.601Z,9.77
2019-04-04T15:55:32.940Z,8.57
2019-04-04T15:57:59.717Z,8.93
2019-04-04T16:00:46.259Z,10.33
2019-04-04T16:03:13.018Z,9.83
2019-04-04T16:05:59.434Z,10.00
2019-04-04T16:08:46.164Z,11.73
2019-04-04T16:11:33.053Z,10.83
2019-04-04T16:14:19.701Z,13.47
2019-04-04T16:17:06.101Z,13.13
2019-04-04T16:19:52.503Z,12.87
2019-04-04T16:22:20.148Z,12.40
2019-04-04T16:25:06.776Z,12.47
2019-04-04T16:27:53.464Z,12.37
2019-04-04T16:30:32.770Z,12.37
2019-04-04T16:33:12.877Z,11.27
2019-04-04T16:35:53.257Z,13.90
2019-04-04T16:38:33.043Z,11.27
2019-04-04T16:43:56.952Z,11.07
2019-04-04T16:46:37.351Z,10.10
2019-04-04T16:49:04.269Z,8.57
2019-04-04T16:51:51.157Z,9.60
2019-04-04T16:54:37.615Z,9.80
2019-04-04T16:57:24.029Z,8.63
2019-04-04T17:00:11.494Z,9.30
2019-04-04T17:02:58.056Z,10.00
2019-04-04T17:05:44.810Z,11.87
2019-04-04T17:08:31.483Z,8.67
2019-04-04T17:11:18.216Z,8.50
2019-04-04T17:14:04.989Z,11.00
2019-04-04T17:16:31.769Z,8.00
2019-04-04T17:19:18.211Z,7.03
2019-04-04T17:22:04.817Z,7.27
2019-04-04T17:24:51.230Z,5.83
2019-04-04T17:27:37.870Z,9.07
2019-04-04T17:30:24.405Z,5.37
2019-04-04T17:33:10.883Z,5.00
2019-04-04T17:35:57.989Z,4.70
2019-04-04T17:38:46.077Z,4.73
2019-04-04T17:41:34.188Z,7.07
2019-04-04T17:44:20.649Z,4.77
2019-04-04T17:47:07.652Z,5.13
2019-04-04T17:49:55.988Z,4.63
2019-04-04T17:52:44.108Z,4.43
2019-04-04T17:55:30.533Z,4.20
2019-04-04T17:58:17.083Z,5.07
2019-04-04T18:03:58.762Z,3.83
2019-04-04T18:06:45.160Z,5.30
2019-04-04T18:09:32.289Z,6.00
2019-04-04T18:12:19.894Z,3.77
2019-04-04T18:15:06.589Z,4.13
2019-04-04T18:17:53.009Z,4.27
2019-04-04T18:20:39.419Z,7.87
2019-04-04T18:23:25.824Z,9.33
2019-04-04T18:26:12.312Z,6.37
2019-04-04T18:29:00.813Z,4.17
2019-04-04T18:31:40.334Z,5.13
2019-04-04T18:34:20.121Z,6.77
2019-04-04T18:37:00.133Z,3.80
2019-04-04T18:39:40.037Z,3.40
2019-04-04T18:42:20.265Z,3.70
2019-04-04T18:45:00.374Z,4.13
2019-04-04T18:47:39.984Z,3.87
2019-04-04T18:50:20.542Z,4.73
2019-04-04T18:53:00.681Z,4.17
2019-04-04T18:55:40.344Z,3.87
2019-04-04T18:58:20.444Z,4.80
2019-04-04T19:01:00.674Z,6.07
2019-04-04T19:03:40.734Z,5.63
2019-04-04T19:06:20.759Z,4.87
2019-04-04T19:09:00.640Z,5.43
2019-04-04T19:11:40.833Z,5.67
2019-04-04T19:14:21.132Z,6.43
2019-04-04T19:17:01.284Z,6.10
2019-04-04T19:19:41.219Z,6.63
2019-04-04T19:22:20.522Z,6.83
2019-04-04T19:25:00.450Z,6.00
2019-04-04T19:27:40.602Z,6.73
2019-04-04T19:30:20.958Z,7.00
2019-04-04T19:33:01.096Z,6.33
2019-04-04T19:35:41.620Z,6.70
2019-04-04T19:38:21.222Z,6.70
2019-04-04T19:41:01.463Z,6.70
2019-04-04T19:43:41.469Z,6.10
2019-04-04T19:46:21.563Z,6.33
2019-04-04T19:49:01.473Z,6.97
2019-04-04T19:51:41.593Z,6.20
2019-04-04T19:54:21.493Z,6.80
2019-04-04T19:57:01.745Z,6.73
2019-04-04T19:59:41.770Z,6.40
2019-04-04T20:02:21.913Z,6.57
2019-04-04T20:05:02.358Z,6.80
2019-04-04T20:07:42.642Z,6.73
2019-04-04T20:10:22.630Z,7.10
2019-04-04T20:13:02.769Z,7.10
2019-04-04T20:15:42.833Z,7.30
2019-04-04T20:18:22.710Z,6.93
2019-04-04T20:21:02.792Z,6.80
2019-04-04T20:23:42.307Z,7.10
2019-04-04T20:26:22.269Z,7.67
2019-04-04T20:29:02.194Z,7.63
2019-04-04T20:31:41.538Z,7.10
2019-04-04T20:34:08.292Z,7.00
2019-04-04T20:36:54.812Z,7.00
2019-04-04T20:39:41.209Z,6.97
2019-04-04T20:42:27.731Z,6.50
2019-04-04T20:45:14.327Z,6.73
2019-04-04T20:48:00.733Z,6.97
2019-04-04T20:50:47.409Z,7.43
2019-04-04T20:53:33.802Z,7.60
2019-04-04T20:56:20.222Z,6.73
2019-04-04T20:59:06.732Z,8.17
2019-04-04T21:01:53.339Z,7.50
2019-04-04T21:04:39.992Z,7.70
2019-04-04T21:07:26.645Z,8.00
2019-04-04T21:10:13.154Z,8.20
2019-04-04T21:12:59.549Z,8.17
2019-04-04T21:15:46.114Z,7.60
2019-04-04T21:18:32.500Z,8.60
2019-04-04T21:20:59.458Z,7.83
2019-04-04T21:23:45.867Z,7.57
2019-04-04T21:26:32.533Z,7.73
2019-04-04T21:28:59.845Z,7.80
2019-04-04T21:31:39.883Z,8.30
2019-04-04T21:34:20.370Z,8.63
2019-04-04T21:36:59.874Z,7.23
2019-04-04T21:39:40.046Z,8.50
2019-04-04T21:42:20.095Z,8.27
2019-04-04T21:45:00.384Z,7.93
2019-04-04T21:47:40.318Z,7.77
2019-04-04T21:50:20.324Z,8.33
2019-04-04T21:53:00.475Z,7.73
2019-04-04T21:55:39.691Z,7.97
2019-04-04T21:58:18.872Z,8.10
2019-04-04T22:00:58.786Z,7.27
2019-04-04T22:03:38.789Z,7.63
2019-04-04T22:06:18.757Z,8.03
2019-04-04T22:08:58.000Z,7.23
2019-04-04T22:11:37.474Z,7.93
2019-04-04T22:14:21.917Z,8.90
2019-04-04T22:16:59.223Z,7.67
2019-04-04T22:19:39.237Z,8.47
2019-04-04T22:22:18.394Z,7.80
2019-04-04T22:24:45.461Z,7.70
2019-04-04T22:27:32.001Z,8.10
2019-04-04T22:29:58.771Z,8.80
2019-04-04T22:32:38.369Z,8.10
2019-04-04T22:35:18.625Z,7.57
2019-04-04T22:37:58.252Z,7.73
2019-04-04T22:40:38.310Z,7.87
2019-04-04T22:43:17.494Z,7.33
2019-04-04T22:45:57.569Z,7.77
2019-04-04T22:48:37.645Z,7.97
2019-04-04T22:51:17.843Z,8.27
2019-04-04T22:53:58.144Z,8.27
2019-04-04T22:56:38.103Z,8.70
2019-04-04T22:59:18.491Z,9.07
2019-04-04T23:01:58.726Z,9.60
2019-04-04T23:04:38.534Z,9.60
2019-04-04T23:10:19.444Z,10.57
2019-04-04T23:13:05.864Z,9.97
2019-04-04T23:15:52.379Z,10.50
2019-04-04T23:18:38.798Z,11.00
2019-04-04T23:21:25.214Z,10.90
2019-04-04T23:24:11.634Z,11.30
2019-04-04T23:26:58.054Z,11.77
2019-04-04T23:29:44.473Z,11.30
2019-04-04T23:32:23.765Z,11.63
2019-04-04T23:35:03.014Z,11.53
2019-04-04T23:37:43.018Z,13.57
2019-04-04T23:40:22.427Z,13.17
2019-04-04T23:43:02.302Z,12.83
2019-04-04T23:45:42.469Z,13.97
2019-04-04T23:48:22.479Z,12.97
2019-04-04T23:51:02.595Z,15.90
2019-04-04T23:53:42.554Z,12.97
2019-04-04T23:56:21.835Z,13.60
2019-04-04T23:59:01.962Z,14.17
